Time;durP1;ratioP1;P1;durP2;ratioP2;P2;SDS_P1;SDS_P2;PMS_P1;PMS_P2;Temp;Humidity;BMP_temperature;BMP_pressure;BME280_temperature;BME280_humidity;BME280_pressure;Samples;Min_cycle;Max_cycle;Signal;HPM_P1;HPM_P2
2023/05/22 00:02:16;;;;;;;11.45;8.80;;;;;;;;;;5000543;28;20026;-84
2023/05/22 00:04:42;;;;;;;13.13;9.52;;;;;;;;;;5000541;28;20373;-84
2023/05/22 00:07:08;;;;;;;11.52;9.43;;;;;;;;;;4983110;28;20073;-84
2023/05/22 00:09:34;;;;;;;14.30;9.90;;;;;;;;;;5000410;28;20026;-85
2023/05/22 00:12:00;;;;;;;15.18;9.30;;;;;;;;;;5000383;28;20037;-85
2023/05/22 00:14:26;;;;;;;14.52;9.43;;;;;;;;;;4982780;28;20085;-85
2023/05/22 00:16:54;;;;;;;12.43;8.85;;;;;;;;;;5000144;28;20345;-85
2023/05/22 00:19:21;;;;;;;11.88;9.20;;;;;;;;;;5000298;28;20046;-85
2023/05/22 00:21:50;;;;;;;11.50;9.07;;;;;;;;;;5000048;28;20030;-85
2023/05/22 00:24:16;;;;;;;12.80;9.38;;;;;;;;;;5000054;28;20038;-84
2023/05/22 00:26:42;;;;;;;17.10;9.68;;;;;;;;;;5000033;28;20101;-85
2023/05/22 00:29:08;;;;;;;12.85;9.38;;;;;;;;;;4982762;28;20037;-84
2023/05/22 00:31:34;;;;;;;14.98;9.68;;;;;;;;;;4982373;28;20041;-85
2023/05/22 00:34:00;;;;;;;16.05;9.40;;;;;;;;;;4982875;28;20041;-84
2023/05/22 00:36:26;;;;;;;12.15;9.15;;;;;;;;;;4999843;28;20030;-85
2023/05/22 00:38:52;;;;;;;12.43;9.68;;;;;;;;;;4982632;28;20037;-85
2023/05/22 00:41:18;;;;;;;10.68;9.35;;;;;;;;;;4999813;28;20049;-85
2023/05/22 00:43:45;;;;;;;12.05;9.48;;;;;;;;;;5000087;28;20054;-85
2023/05/22 00:46:11;;;;;;;10.52;9.20;;;;;;;;;;4999707;28;20500;-84
2023/05/22 00:48:37;;;;;;;11.82;9.20;;;;;;;;;;4982074;28;20065;-84
2023/05/22 00:51:03;;;;;;;15.30;9.52;;;;;;;;;;4999541;28;20018;-84
2023/05/22 00:53:30;;;;;;;12.90;9.20;;;;;;;;;;4999427;28;20072;-85
2023/05/22 00:55:56;;;;;;;11.38;9.43;;;;;;;;;;4999429;28;20022;-84
2023/05/22 00:58:25;;;;;;;14.68;9.75;;;;;;;;;;4999247;28;20030;-84
2023/05/22 01:00:51;;;;;;;15.48;9.73;;;;;;;;;;4999506;28;20034;-85
2023/05/22 01:03:18;;;;;;;14.75;10.15;;;;;;;;;;4981690;28;20030;-84
2023/05/22 01:05:44;;;;;;;12.45;9.80;;;;;;;;;;4999300;28;20117;-84
2023/05/22 01:08:10;;;;;;;23.35;11.10;;;;;;;;;;4981893;28;20026;-84
2023/05/22 01:10:38;;;;;;;12.55;10.30;;;;;;;;;;4999154;28;20085;-85
2023/05/22 01:13:10;;;;;;;15.35;10.95;;;;;;;;;;4981779;28;20413;-85
2023/05/22 01:15:45;;;;;;;17.00;12.38;;;;;;;;;;4999142;28;20044;-84
2023/05/22 01:18:18;;;;;;;15.25;11.82;;;;;;;;;;4981482;28;20129;-84
2023/05/22 01:20:52;;;;;;;15.05;11.43;;;;;;;;;;4999087;28;20049;-84
2023/05/22 01:23:41;;;;;;;20.20;11.63;;;;;;;;;;4998794;28;20026;-85
2023/05/22 01:26:26;;;;;;;19.05;11.73;;;;;;;;;;4885546;29;20049;-84
2023/05/22 01:29:08;;;;;;;19.35;11.23;;;;;;;;;;4901189;29;20335;-85
2023/05/22 01:31:37;;;;;;;15.55;10.88;;;;;;;;;;4901025;29;20116;-85
2023/05/22 01:34:05;;;;;;;17.83;11.20;;;;;;;;;;4885538;29;20033;-85
2023/05/22 01:36:35;;;;;;;17.27;11.25;;;;;;;;;;4901147;29;20376;-84
2023/05/22 01:39:05;;;;;;;14.23;11.48;;;;;;;;;;4901126;29;20029;-85
2023/05/22 01:41:31;;;;;;;14.02;11.68;;;;;;;;;;4901163;29;20037;-85
2023/05/22 01:43:58;;;;;;;19.15;12.90;;;;;;;;;;4900611;29;20044;-85
2023/05/22 01:46:27;;;;;;;15.13;11.95;;;;;;;;;;4900782;29;20060;-85
2023/05/22 01:48:54;;;;;;;14.82;11.80;;;;;;;;;;4900945;29;20029;-85
2023/05/22 01:51:39;;;;;;;16.73;12.65;;;;;;;;;;4885513;29;20148;-85
2023/05/22 01:54:05;;;;;;;17.20;11.43;;;;;;;;;;4885441;29;20063;-85
2023/05/22 01:56:38;;;;;;;18.02;11.60;;;;;;;;;;4900850;29;20060;-85
2023/05/22 01:59:18;;;;;;;18.40;12.77;;;;;;;;;;4885176;29;20039;-85
2023/05/22 02:01:44;;;;;;;21.15;12.75;;;;;;;;;;4900559;29;20037;-85
2023/05/22 02:04:13;;;;;;;16.83;12.50;;;;;;;;;;4993931;28;20041;-85
2023/05/22 02:06:40;;;;;;;16.40;13.27;;;;;;;;;;4998217;28;20417;-85
2023/05/22 02:09:07;;;;;;;17.20;13.25;;;;;;;;;;4998250;28;20109;-85
2023/05/22 02:11:34;;;;;;;21.38;13.60;;;;;;;;;;4981021;28;20317;-85
2023/05/22 02:14:00;;;;;;;17.55;13.88;;;;;;;;;;4998324;28;20352;-85
2023/05/22 02:16:27;;;;;;;19.45;13.27;;;;;;;;;;4997913;28;20411;-85
2023/05/22 02:19:04;;;;;;;16.75;13.20;;;;;;;;;;4980978;28;20145;-84
2023/05/22 02:21:30;;;;;;;17.75;12.35;;;;;;;;;;4980737;28;20036;-84
2023/05/22 02:23:56;;;;;;;19.25;12.15;;;;;;;;;;4998128;28;20030;-84
2023/05/22 02:26:22;;;;;;;16.30;12.02;;;;;;;;;;4980847;28;20045;-85
2023/05/22 02:28:48;;;;;;;12.68;11.38;;;;;;;;;;4980162;28;20054;-84
2023/05/22 02:31:15;;;;;;;19.48;12.20;;;;;;;;;;4980733;28;20022;-84
2023/05/22 02:33:41;;;;;;;18.38;11.18;;;;;;;;;;4998001;28;20030;-84
2023/05/22 02:36:09;;;;;;;15.95;10.90;;;;;;;;;;4997812;28;20023;-84
2023/05/22 02:38:35;;;;;;;21.33;11.27;;;;;;;;;;4997938;28;20415;-83
2023/05/22 02:41:01;;;;;;;17.77;11.88;;;;;;;;;;4984595;28;20026;-84
2023/05/22 02:43:28;;;;;;;16.95;11.88;;;;;;;;;;5001918;28;20057;-84
2023/05/22 02:45:54;;;;;;;15.45;12.27;;;;;;;;;;5001816;28;20030;-84
2023/05/22 02:48:20;;;;;;;15.43;12.45;;;;;;;;;;5001494;28;20030;-83
2023/05/22 02:50:47;;;;;;;16.83;12.35;;;;;;;;;;5001656;28;20054;-84
2023/05/22 02:53:14;;;;;;;22.15;12.75;;;;;;;;;;5001748;28;20214;-84
2023/05/22 02:55:40;;;;;;;17.95;11.57;;;;;;;;;;4984003;28;20076;-84
2023/05/22 02:58:10;;;;;;;18.35;12.30;;;;;;;;;;5001824;28;20101;-84
2023/05/22 03:00:39;;;;;;;14.93;11.60;;;;;;;;;;5001495;28;20041;-83
2023/05/22 03:03:05;;;;;;;14.60;11.55;;;;;;;;;;4984275;28;20073;-83
2023/05/22 03:05:32;;;;;;;16.02;11.55;;;;;;;;;;5001335;28;20487;-84
2023/05/22 03:07:58;;;;;;;15.73;11.48;;;;;;;;;;4984177;28;20325;-84
2023/05/22 03:10:24;;;;;;;16.80;11.45;;;;;;;;;;5001263;28;20042;-85
2023/05/22 03:12:50;;;;;;;12.98;11.00;;;;;;;;;;5001327;28;20027;-84
2023/05/22 03:15:17;;;;;;;16.88;11.60;;;;;;;;;;5001674;28;20031;-85
2023/05/22 03:17:43;;;;;;;13.32;10.77;;;;;;;;;;5001107;28;20038;-84
2023/05/22 03:20:09;;;;;;;14.57;10.65;;;;;;;;;;5000933;28;20324;-84
2023/05/22 03:22:36;;;;;;;12.63;10.75;;;;;;;;;;5000301;28;20042;-83
2023/05/22 03:25:02;;;;;;;12.82;11.48;;;;;;;;;;5001378;28;20023;-84
2023/05/22 03:27:28;;;;;;;15.48;10.75;;;;;;;;;;5001138;28;20026;-84
2023/05/22 03:30:13;;;;;;;13.75;11.50;;;;;;;;;;5000369;28;20369;-84
2023/05/22 03:32:39;;;;;;;19.42;13.38;;;;;;;;;;5000523;28;20030;-84
2023/05/22 03:35:06;;;;;;;15.88;13.18;;;;;;;;;;5000705;28;20058;-87
2023/05/22 03:37:32;;;;;;;16.00;12.60;;;;;;;;;;5001490;28;20026;-87
2023/05/22 03:39:58;;;;;;;14.70;12.18;;;;;;;;;;5001142;28;20026;-87
2023/05/22 03:42:24;;;;;;;17.38;13.02;;;;;;;;;;5016592;28;20026;-87
2023/05/22 03:44:50;;;;;;;18.63;13.35;;;;;;;;;;5001248;28;20091;-87
2023/05/22 03:47:16;;;;;;;19.23;14.32;;;;;;;;;;5015767;28;20043;-88
2023/05/22 03:49:42;;;;;;;16.48;12.98;;;;;;;;;;5000252;28;20033;-87
2023/05/22 03:52:11;;;;;;;15.60;13.07;;;;;;;;;;5000981;28;20028;-86
2023/05/22 03:54:37;;;;;;;18.27;13.88;;;;;;;;;;5000883;28;20050;-87
2023/05/22 03:57:03;;;;;;;21.30;14.65;;;;;;;;;;5001100;28;20038;-87
2023/05/22 03:59:29;;;;;;;17.88;14.10;;;;;;;;;;5000738;28;20033;-88
2023/05/22 04:01:56;;;;;;;23.63;15.57;;;;;;;;;;5000743;28;20030;-87
2023/05/22 04:04:25;;;;;;;18.23;15.52;;;;;;;;;;5000674;28;20077;-87
2023/05/22 04:06:51;;;;;;;16.08;14.43;;;;;;;;;;5000666;28;20035;-87
2023/05/22 04:09:18;;;;;;;22.15;14.48;;;;;;;;;;5015092;28;20340;-88
2023/05/22 04:11:45;;;;;;;19.80;15.75;;;;;;;;;;5000471;28;20026;-87
2023/05/22 04:14:11;;;;;;;20.80;15.57;;;;;;;;;;5016020;28;20023;-86
2023/05/22 04:16:37;;;;;;;20.63;16.40;;;;;;;;;;5000401;28;20125;-87
2023/05/22 04:19:03;;;;;;;20.02;16.42;;;;;;;;;;5000455;28;20397;-87
2023/05/22 04:21:33;;;;;;;21.98;15.77;;;;;;;;;;5000433;28;20494;-87
2023/05/22 04:24:00;;;;;;;19.52;15.90;;;;;;;;;;5000349;28;20034;-87
2023/05/22 04:26:28;;;;;;;17.90;16.00;;;;;;;;;;5000520;28;20084;-87
2023/05/22 04:28:54;;;;;;;21.98;16.17;;;;;;;;;;5000159;28;20065;-86
2023/05/22 04:31:21;;;;;;;20.10;15.95;;;;;;;;;;5015552;28;20429;-87
2023/05/22 04:33:48;;;;;;;18.42;15.55;;;;;;;;;;5000312;28;20038;-87
2023/05/22 04:36:16;;;;;;;17.67;14.82;;;;;;;;;;5015191;28;20073;-87
2023/05/22 04:38:43;;;;;;;22.98;16.98;;;;;;;;;;5015578;28;20034;-87
2023/05/22 04:41:12;;;;;;;20.48;16.52;;;;;;;;;;4999975;28;20034;-87
2023/05/22 04:43:38;;;;;;;21.50;16.05;;;;;;;;;;5014975;28;20042;-86
2023/05/22 04:46:05;;;;;;;23.90;17.40;;;;;;;;;;5015158;28;20037;-87
2023/05/22 04:48:32;;;;;;;18.95;16.08;;;;;;;;;;4999531;28;20026;-87
2023/05/22 04:51:01;;;;;;;27.55;19.08;;;;;;;;;;4999805;28;20113;-87
2023/05/22 04:53:29;;;;;;;21.33;18.00;;;;;;;;;;4999846;28;20030;-86
2023/05/22 04:55:55;;;;;;;26.50;19.95;;;;;;;;;;4999809;28;20022;-87
2023/05/22 04:58:22;;;;;;;27.23;18.20;;;;;;;;;;4999818;28;20054;-87
2023/05/22 05:00:48;;;;;;;20.73;17.75;;;;;;;;;;4999662;28;20073;-86
2023/05/22 05:03:14;;;;;;;21.08;17.33;;;;;;;;;;5014192;28;20023;-87
2023/05/22 05:05:40;;;;;;;21.98;17.85;;;;;;;;;;5014942;28;20073;-87
2023/05/22 05:08:06;;;;;;;19.95;17.27;;;;;;;;;;5015018;28;20146;-87
2023/05/22 05:10:33;;;;;;;23.40;17.90;;;;;;;;;;5014286;28;20059;-88
2023/05/22 05:12:59;;;;;;;20.77;17.40;;;;;;;;;;4999715;28;20026;-87
2023/05/22 05:15:26;;;;;;;19.08;16.90;;;;;;;;;;4999427;28;20105;-87
2023/05/22 05:17:52;;;;;;;29.02;18.25;;;;;;;;;;4999151;28;20046;-87
2023/05/22 05:20:18;;;;;;;21.13;17.30;;;;;;;;;;4999335;28;20400;-86
2023/05/22 05:22:45;;;;;;;18.67;16.70;;;;;;;;;;4998878;28;20427;-87
2023/05/22 05:25:11;;;;;;;21.98;17.83;;;;;;;;;;5014720;28;20157;-88
2023/05/22 05:27:37;;;;;;;22.75;17.88;;;;;;;;;;4999262;28;20019;-87
2023/05/22 05:30:03;;;;;;;21.50;17.30;;;;;;;;;;5014644;28;20027;-87
2023/05/22 05:32:30;;;;;;;23.02;18.25;;;;;;;;;;4999112;28;20022;-87
2023/05/22 05:34:56;;;;;;;20.95;17.88;;;;;;;;;;4999003;28;20030;-87
2023/05/22 05:37:22;;;;;;;21.55;17.50;;;;;;;;;;4998856;28;20022;-87
2023/05/22 05:39:48;;;;;;;22.45;18.38;;;;;;;;;;4999124;28;20026;-87
2023/05/22 05:42:16;;;;;;;21.67;16.13;;;;;;;;;;5014190;28;20030;-88
2023/05/22 05:44:42;;;;;;;18.75;16.60;;;;;;;;;;4998840;28;20034;-87
2023/05/22 05:47:08;;;;;;;20.83;16.48;;;;;;;;;;4998840;28;20089;-89
2023/05/22 05:49:34;;;;;;;22.05;16.63;;;;;;;;;;4998417;28;20402;-86
2023/05/22 05:52:00;;;;;;;23.50;16.40;;;;;;;;;;5013091;28;20399;-88
2023/05/22 05:54:26;;;;;;;18.60;16.58;;;;;;;;;;4998858;28;20018;-89
2023/05/22 05:56:52;;;;;;;21.30;16.77;;;;;;;;;;4999701;28;20049;-88
2023/05/22 05:59:18;;;;;;;18.90;16.05;;;;;;;;;;4998744;28;20034;-86
2023/05/22 06:01:46;;;;;;;18.17;14.32;;;;;;;;;;5013904;28;20076;-86
2023/05/22 06:04:12;;;;;;;19.98;14.13;;;;;;;;;;4998471;28;20030;-86
2023/05/22 06:06:38;;;;;;;16.98;12.90;;;;;;;;;;4998297;28;20027;-85
2023/05/22 06:09:05;;;;;;;13.95;12.30;;;;;;;;;;5013529;28;20332;-85
2023/05/22 06:11:31;;;;;;;14.45;12.40;;;;;;;;;;4998510;28;20027;-85
2023/05/22 06:14:01;;;;;;;14.35;11.95;;;;;;;;;;4998150;28;20022;-86
2023/05/22 06:16:28;;;;;;;16.77;12.00;;;;;;;;;;4997839;28;20437;-85
2023/05/22 06:18:55;;;;;;;15.35;11.27;;;;;;;;;;4998194;28;20030;-86
2023/05/22 06:21:23;;;;;;;16.50;11.88;;;;;;;;;;4998023;28;20030;-85
2023/05/22 06:23:49;;;;;;;15.18;12.00;;;;;;;;;;4998339;28;20076;-85
2023/05/22 06:26:16;;;;;;;12.93;11.55;;;;;;;;;;4998274;28;20129;-86
2023/05/22 06:28:42;;;;;;;13.35;10.77;;;;;;;;;;4998366;28;20049;-86
2023/05/22 06:31:08;;;;;;;14.10;9.48;;;;;;;;;;4997989;28;20022;-86
2023/05/22 06:33:39;;;;;;;12.43;9.30;;;;;;;;;;4998120;28;20340;-86
2023/05/22 06:36:06;;;;;;;10.45;8.20;;;;;;;;;;5013437;28;20386;-86
2023/05/22 06:38:32;;;;;;;13.50;9.00;;;;;;;;;;4998130;28;20023;-86
2023/05/22 06:40:58;;;;;;;11.15;7.28;;;;;;;;;;5013136;28;20129;-88
2023/05/22 06:43:24;;;;;;;9.57;8.43;;;;;;;;;;4997951;28;20027;-87
2023/05/22 06:49:07;;;;;;;13.00;7.65;;;;;;;;;;4997790;28;20045;-86
2023/05/22 06:51:33;;;;;;;9.93;7.03;;;;;;;;;;4997944;28;20089;-87
2023/05/22 06:53:59;;;;;;;7.97;6.53;;;;;;;;;;4998152;28;20048;-86
2023/05/22 06:56:25;;;;;;;10.40;7.15;;;;;;;;;;5013360;28;20022;-86
2023/05/22 06:58:51;;;;;;;9.23;7.07;;;;;;;;;;5013303;28;20324;-86
2023/05/22 07:01:17;;;;;;;7.80;7.00;;;;;;;;;;4998222;28;20022;-87
2023/05/22 07:03:43;;;;;;;11.77;6.95;;;;;;;;;;5012907;28;20034;-87
2023/05/22 07:06:10;;;;;;;12.38;7.93;;;;;;;;;;4997881;28;20068;-86
2023/05/22 07:08:36;;;;;;;18.48;7.95;;;;;;;;;;5012539;28;20042;-86
2023/05/22 07:11:05;;;;;;;7.30;6.55;;;;;;;;;;5013092;28;20041;-86
2023/05/22 07:13:31;;;;;;;12.40;7.18;;;;;;;;;;4997545;28;20030;-87
2023/05/22 07:15:57;;;;;;;8.77;6.68;;;;;;;;;;4997461;28;20479;-86
2023/05/22 07:18:23;;;;;;;10.80;6.50;;;;;;;;;;4997770;28;20033;-86
2023/05/22 07:20:49;;;;;;;8.93;7.28;;;;;;;;;;5012890;28;20030;-86
2023/05/22 07:23:15;;;;;;;10.27;7.05;;;;;;;;;;4997666;28;20029;-87
2023/05/22 07:25:42;;;;;;;16.50;6.57;;;;;;;;;;4999604;28;20030;-86
2023/05/22 07:28:10;;;;;;;9.68;6.53;;;;;;;;;;5016665;28;20072;-86
2023/05/22 07:30:37;;;;;;;10.20;7.03;;;;;;;;;;5001535;28;20475;-87
2023/05/22 07:33:04;;;;;;;11.35;6.70;;;;;;;;;;5016774;28;20366;-86
2023/05/22 07:35:30;;;;;;;8.57;6.53;;;;;;;;;;5001354;28;20053;-86
2023/05/22 07:37:56;;;;;;;9.20;6.35;;;;;;;;;;5001495;28;20312;-87
2023/05/22 07:40:23;;;;;;;10.65;7.13;;;;;;;;;;5015952;28;20066;-87
2023/05/22 07:42:49;;;;;;;10.98;6.50;;;;;;;;;;5016466;28;20066;-87
2023/05/22 07:45:18;;;;;;;13.73;7.13;;;;;;;;;;5001607;28;20413;-88
2023/05/22 07:47:44;;;;;;;15.68;8.05;;;;;;;;;;5001170;28;20022;-87
2023/05/22 07:50:10;;;;;;;8.13;6.65;;;;;;;;;;5016400;28;20471;-88
2023/05/22 07:52:36;;;;;;;8.45;6.07;;;;;;;;;;5001058;28;20034;-87
2023/05/22 07:55:02;;;;;;;9.05;6.43;;;;;;;;;;5016262;28;20115;-87
2023/05/22 07:57:28;;;;;;;8.60;6.90;;;;;;;;;;5015412;28;20039;-87
2023/05/22 07:59:55;;;;;;;8.30;5.93;;;;;;;;;;5000719;28;20022;-87
2023/05/22 08:02:21;;;;;;;6.70;6.00;;;;;;;;;;5000479;28;20042;-86
2023/05/22 08:04:49;;;;;;;7.55;5.65;;;;;;;;;;5015715;28;20092;-87
2023/05/22 08:07:15;;;;;;;11.90;6.13;;;;;;;;;;5000743;28;20026;-87
2023/05/22 08:09:44;;;;;;;9.00;5.53;;;;;;;;;;5000640;28;20042;-87
2023/05/22 08:12:11;;;;;;;10.75;5.75;;;;;;;;;;5015661;28;20085;-87
2023/05/22 08:14:37;;;;;;;7.07;6.03;;;;;;;;;;5000395;28;20117;-87
2023/05/22 08:17:03;;;;;;;7.38;5.97;;;;;;;;;;5000126;28;20043;-87
2023/05/22 08:19:29;;;;;;;8.45;5.75;;;;;;;;;;5000703;28;20034;-87
2023/05/22 08:21:56;;;;;;;7.93;5.38;;;;;;;;;;5000584;28;20030;-87
2023/05/22 08:24:27;;;;;;;9.40;5.30;;;;;;;;;;5015423;28;20035;-87
2023/05/22 08:26:53;;;;;;;6.22;4.72;;;;;;;;;;5000377;28;20050;-86
2023/05/22 08:29:20;;;;;;;10.82;5.07;;;;;;;;;;5015162;28;20042;-86
2023/05/22 08:31:46;;;;;;;10.55;5.47;;;;;;;;;;4983069;28;20033;-85
2023/05/22 08:34:12;;;;;;;6.00;4.18;;;;;;;;;;4982873;28;20357;-86
2023/05/22 08:36:38;;;;;;;8.00;4.70;;;;;;;;;;4998658;28;20045;-85
2023/05/22 08:39:06;;;;;;;8.10;5.70;;;;;;;;;;5000164;28;20019;-87
2023/05/22 08:41:32;;;;;;;7.20;4.60;;;;;;;;;;4998756;28;20137;-86
2023/05/22 08:43:58;;;;;;;7.40;4.07;;;;;;;;;;4999850;28;20031;-87
2023/05/22 08:46:44;;;;;;;7.60;4.13;;;;;;;;;;4981948;28;20051;-86
2023/05/22 08:49:10;;;;;;;6.75;4.43;;;;;;;;;;4982547;28;20121;-86
2023/05/22 08:51:41;;;;;;;9.27;4.45;;;;;;;;;;4982603;28;20333;-86
2023/05/22 08:54:08;;;;;;;6.83;4.23;;;;;;;;;;5000160;28;20026;-86
2023/05/22 08:56:35;;;;;;;6.60;4.40;;;;;;;;;;4999964;28;20413;-87
2023/05/22 08:59:01;;;;;;;6.22;4.60;;;;;;;;;;4999585;28;20428;-86
2023/05/22 09:01:31;;;;;;;15.30;4.68;;;;;;;;;;4981897;28;20038;-87
2023/05/22 09:04:01;;;;;;;6.47;4.75;;;;;;;;;;4981743;28;20141;-87
2023/05/22 09:06:30;;;;;;;7.88;5.47;;;;;;;;;;4998961;28;20030;-86
2023/05/22 09:08:56;;;;;;;7.03;5.20;;;;;;;;;;4999831;28;20118;-87
2023/05/22 09:11:23;;;;;;;5.93;4.47;;;;;;;;;;4999047;28;20022;-87
2023/05/22 09:13:50;;;;;;;8.57;4.60;;;;;;;;;;4999031;28;20058;-86
2023/05/22 09:16:17;;;;;;;9.20;4.95;;;;;;;;;;4998995;28;20035;-85
2023/05/22 09:18:43;;;;;;;9.43;5.00;;;;;;;;;;4999255;28;20038;-86
2023/05/22 09:21:13;;;;;;;11.38;5.00;;;;;;;;;;4981852;28;20117;-86
2023/05/22 09:23:39;;;;;;;10.50;4.88;;;;;;;;;;4999039;28;20393;-85
2023/05/22 09:26:06;;;;;;;7.13;4.38;;;;;;;;;;4981925;28;20033;-86
2023/05/22 09:28:33;;;;;;;8.75;4.45;;;;;;;;;;4998507;28;20026;-85
2023/05/22 09:31:18;;;;;;;9.02;4.85;;;;;;;;;;4998386;28;20404;-84
2023/05/22 09:33:44;;;;;;;5.32;4.20;;;;;;;;;;4999434;28;20031;-88
2023/05/22 09:36:11;;;;;;;7.18;4.32;;;;;;;;;;5004942;28;20030;-84
2023/05/22 09:38:37;;;;;;;6.00;4.35;;;;;;;;;;4998510;28;20022;-84
2023/05/22 09:41:03;;;;;;;6.75;4.10;;;;;;;;;;4998019;28;20034;-83
2023/05/22 09:43:29;;;;;;;6.18;4.50;;;;;;;;;;4980963;28;20045;-83
2023/05/22 09:45:56;;;;;;;8.57;4.70;;;;;;;;;;4998584;28;20042;-84
2023/05/22 09:48:25;;;;;;;9.13;4.25;;;;;;;;;;4997775;28;20068;-83
2023/05/22 09:50:53;;;;;;;7.60;4.68;;;;;;;;;;4998295;28;20054;-84
2023/05/22 09:53:20;;;;;;;7.85;4.35;;;;;;;;;;4980734;28;20317;-85
2023/05/22 09:55:48;;;;;;;6.22;4.45;;;;;;;;;;4980988;28;20057;-84
2023/05/22 09:58:18;;;;;;;7.40;4.90;;;;;;;;;;4980983;28;20068;-84
2023/05/22 10:00:44;;;;;;;5.30;4.32;;;;;;;;;;4997974;28;20353;-84
2023/05/22 10:03:11;;;;;;;8.27;4.38;;;;;;;;;;4997888;28;20405;-83
2023/05/22 10:05:37;;;;;;;6.00;4.13;;;;;;;;;;4980874;28;20033;-83
2023/05/22 10:08:17;;;;;;;6.07;4.30;;;;;;;;;;4997218;28;20109;-83
2023/05/22 10:10:47;;;;;;;6.82;4.28;;;;;;;;;;5013795;28;20022;-86
2023/05/22 10:13:13;;;;;;;8.25;4.55;;;;;;;;;;4998098;28;20023;-86
2023/05/22 10:16:10;;;;;;;6.72;4.57;;;;;;;;;;4998518;28;20030;-86
2023/05/22 10:18:37;;;;;;;6.32;4.10;;;;;;;;;;4960912;28;20149;-84
2023/05/22 10:21:06;;;;;;;7.72;4.47;;;;;;;;;;4978405;28;20069;-84
2023/05/22 10:23:32;;;;;;;9.13;4.20;;;;;;;;;;4988665;28;20058;-84
2023/05/22 10:25:58;;;;;;;5.93;4.25;;;;;;;;;;4978718;28;20054;-84
2023/05/22 10:28:27;;;;;;;12.23;4.90;;;;;;;;;;4961302;28;20065;-84
2023/05/22 10:30:55;;;;;;;6.82;4.38;;;;;;;;;;4978015;28;20154;-85
2023/05/22 10:33:23;;;;;;;8.18;4.70;;;;;;;;;;4961578;28;20020;-85
2023/05/22 10:36:03;;;;;;;6.38;4.15;;;;;;;;;;4961304;28;20417;-84
2023/05/22 10:38:48;;;;;;;8.48;4.03;;;;;;;;;;4977746;28;20035;-84
2023/05/22 10:41:14;;;;;;;10.25;4.40;;;;;;;;;;4978319;28;20031;-83
2023/05/22 10:43:41;;;;;;;8.23;4.70;;;;;;;;;;4978293;28;20031;-84
2023/05/22 10:46:08;;;;;;;7.50;4.90;;;;;;;;;;4977949;28;20051;-83
2023/05/22 10:48:44;;;;;;;6.63;4.45;;;;;;;;;;4977918;28;20118;-84
2023/05/22 10:51:12;;;;;;;9.10;4.32;;;;;;;;;;4978335;28;20043;-84
2023/05/22 10:53:39;;;;;;;7.53;4.50;;;;;;;;;;4961301;28;20030;-85
2023/05/22 10:56:17;;;;;;;7.20;4.70;;;;;;;;;;4978392;28;20023;-84
2023/05/22 10:58:44;;;;;;;8.90;5.15;;;;;;;;;;4977883;28;20330;-84
2023/05/22 11:01:11;;;;;;;8.48;4.60;;;;;;;;;;4980999;28;20027;-84
2023/05/22 11:03:56;;;;;;;6.85;4.80;;;;;;;;;;4981848;28;20037;-84
2023/05/22 11:06:44;;;;;;;7.38;4.90;;;;;;;;;;4981788;28;20077;-84
2023/05/22 11:09:22;;;;;;;8.32;5.43;;;;;;;;;;4964880;28;20070;-85
2023/05/22 11:12:10;;;;;;;5.88;5.00;;;;;;;;;;4982068;28;20085;-85
2023/05/22 11:14:37;;;;;;;6.20;4.57;;;;;;;;;;4981737;28;20053;-84
2023/05/22 11:17:04;;;;;;;7.03;4.68;;;;;;;;;;4988585;28;20457;-84
2023/05/22 11:19:32;;;;;;;5.47;4.55;;;;;;;;;;5001389;28;20062;-84
2023/05/22 11:22:05;;;;;;;9.18;4.57;;;;;;;;;;4984179;28;20365;-83
2023/05/22 11:24:34;;;;;;;10.35;5.13;;;;;;;;;;4983455;28;20388;-85
2023/05/22 11:27:07;;;;;;;6.88;4.88;;;;;;;;;;5000968;28;20037;-83
2023/05/22 11:29:34;;;;;;;8.50;4.78;;;;;;;;;;4983260;28;20425;-83
2023/05/22 11:32:00;;;;;;;8.35;4.63;;;;;;;;;;5000667;28;20063;-83
2023/05/22 11:34:27;;;;;;;9.52;5.00;;;;;;;;;;4983696;28;20042;-84
2023/05/22 11:36:57;;;;;;;7.32;4.85;;;;;;;;;;5000992;28;20036;-83
2023/05/22 11:39:23;;;;;;;10.95;5.40;;;;;;;;;;5000759;28;20032;-83
2023/05/22 11:41:49;;;;;;;9.80;4.93;;;;;;;;;;4983497;28;20058;-84
2023/05/22 11:44:15;;;;;;;11.55;6.32;;;;;;;;;;4983516;28;20030;-84
2023/05/22 11:46:41;;;;;;;8.93;5.75;;;;;;;;;;5000217;28;20031;-83
2023/05/22 11:49:13;;;;;;;7.88;4.97;;;;;;;;;;4983331;28;20034;-84
2023/05/22 11:51:40;;;;;;;10.25;5.18;;;;;;;;;;4983369;28;20044;-86
2023/05/22 11:54:09;;;;;;;8.57;5.10;;;;;;;;;;5000633;28;20025;-86
2023/05/22 11:56:35;;;;;;;7.78;5.53;;;;;;;;;;5000895;28;20034;-85
2023/05/22 11:59:01;;;;;;;9.43;5.22;;;;;;;;;;5000467;28;20030;-85
2023/05/22 12:01:27;;;;;;;12.90;5.50;;;;;;;;;;5000709;28;20018;-84
2023/05/22 12:03:53;;;;;;;9.82;4.78;;;;;;;;;;5000416;28;20027;-85
2023/05/22 12:06:19;;;;;;;10.60;4.88;;;;;;;;;;5000459;28;20026;-85
2023/05/22 12:08:45;;;;;;;11.50;5.05;;;;;;;;;;4983064;28;20026;-83
2023/05/22 12:11:12;;;;;;;7.97;5.30;;;;;;;;;;5000029;28;20029;-83
2023/05/22 12:13:38;;;;;;;10.65;5.03;;;;;;;;;;4982364;28;20019;-83
2023/05/22 12:16:18;;;;;;;8.65;4.85;;;;;;;;;;4982712;28;20393;-83
2023/05/22 12:18:44;;;;;;;17.80;6.32;;;;;;;;;;4980477;28;20061;-84
2023/05/22 12:21:10;;;;;;;5.97;4.63;;;;;;;;;;4980332;28;20033;-83
2023/05/22 12:23:38;;;;;;;6.82;4.38;;;;;;;;;;4980486;28;20481;-85
2023/05/22 12:26:09;;;;;;;18.20;5.90;;;;;;;;;;4980445;28;20044;-84
2023/05/22 12:28:35;;;;;;;12.73;6.15;;;;;;;;;;4980659;28;20023;-84
2023/05/22 12:31:19;;;;;;;10.02;4.50;;;;;;;;;;4980362;28;20117;-83
2023/05/22 12:33:45;;;;;;;10.25;5.38;;;;;;;;;;4963377;28;20082;-84
2023/05/22 12:36:11;;;;;;;9.73;4.50;;;;;;;;;;4980184;28;20030;-83
2023/05/22 12:38:40;;;;;;;6.97;4.15;;;;;;;;;;4979815;28;20386;-84
2023/05/22 12:41:06;;;;;;;11.05;4.88;;;;;;;;;;4980293;28;20035;-85
2023/05/22 12:43:32;;;;;;;8.32;4.20;;;;;;;;;;4979696;28;20119;-84
2023/05/22 12:45:58;;;;;;;7.70;5.22;;;;;;;;;;4960981;29;20062;-84
2023/05/22 12:48:25;;;;;;;11.45;5.10;;;;;;;;;;4975704;28;20061;-84
2023/05/22 12:50:51;;;;;;;5.90;4.30;;;;;;;;;;4975996;28;20481;-83
2023/05/22 12:53:17;;;;;;;6.88;4.15;;;;;;;;;;4979954;28;20369;-86
2023/05/22 12:55:43;;;;;;;8.05;4.32;;;;;;;;;;4993777;28;20417;-84
2023/05/22 12:58:09;;;;;;;6.50;3.63;;;;;;;;;;4995036;28;20073;-84
2023/05/22 13:00:35;;;;;;;8.48;4.53;;;;;;;;;;4979914;28;20113;-84
2023/05/22 13:03:01;;;;;;;11.07;4.63;;;;;;;;;;4979735;28;20022;-84
2023/05/22 13:05:27;;;;;;;7.07;4.32;;;;;;;;;;4994640;28;20042;-84
2023/05/22 13:07:53;;;;;;;11.30;4.20;;;;;;;;;;4994887;28;20069;-85
2023/05/22 13:10:20;;;;;;;8.48;4.55;;;;;;;;;;4978838;28;20027;-85
2023/05/22 13:12:47;;;;;;;9.88;4.72;;;;;;;;;;4978727;28;20026;-84
2023/05/22 13:15:14;;;;;;;5.50;4.20;;;;;;;;;;4978592;28;20157;-84
2023/05/22 13:17:40;;;;;;;12.82;4.97;;;;;;;;;;4989997;28;20088;-80
2023/05/22 13:20:06;;;;;;;6.78;4.13;;;;;;;;;;4998680;28;20082;-79
2023/05/22 13:22:32;;;;;;;9.75;5.40;;;;;;;;;;4980829;28;20040;-80
2023/05/22 13:24:59;;;;;;;14.38;4.78;;;;;;;;;;4998764;28;20026;-79
2023/05/22 13:27:26;;;;;;;8.18;4.60;;;;;;;;;;4998617;28;20026;-79
2023/05/22 13:29:52;;;;;;;6.88;4.18;;;;;;;;;;4998332;28;20019;-79
2023/05/22 13:32:18;;;;;;;15.18;5.07;;;;;;;;;;4998640;28;20034;-79
2023/05/22 13:34:44;;;;;;;7.40;4.20;;;;;;;;;;4998377;28;20033;-79
2023/05/22 13:37:12;;;;;;;10.77;4.57;;;;;;;;;;4998328;28;20058;-84
2023/05/22 13:39:38;;;;;;;8.65;4.43;;;;;;;;;;4981151;28;20022;-83
2023/05/22 13:42:04;;;;;;;5.35;4.32;;;;;;;;;;4980632;28;20073;-83
2023/05/22 13:44:30;;;;;;;9.98;4.30;;;;;;;;;;4998610;28;20022;-83
2023/05/22 13:46:56;;;;;;;8.32;3.92;;;;;;;;;;4980403;28;20421;-84
2023/05/22 13:49:22;;;;;;;7.45;4.20;;;;;;;;;;4998271;28;20038;-83
2023/05/22 13:51:48;;;;;;;7.80;4.18;;;;;;;;;;4997998;28;20206;-83
2023/05/22 13:54:14;;;;;;;6.53;4.05;;;;;;;;;;4998291;28;20033;-84
2023/05/22 13:56:40;;;;;;;5.97;4.30;;;;;;;;;;4998123;28;20049;-83
2023/05/22 13:59:06;;;;;;;6.05;4.10;;;;;;;;;;4998170;28;20069;-83
2023/05/22 14:01:33;;;;;;;7.88;4.75;;;;;;;;;;4998022;28;20100;-83
2023/05/22 14:03:59;;;;;;;28.70;5.25;;;;;;;;;;4998217;28;20105;-83
2023/05/22 14:06:25;;;;;;;12.32;4.60;;;;;;;;;;4997636;28;20023;-83
2023/05/22 14:08:51;;;;;;;6.63;4.00;;;;;;;;;;4997796;28;20089;-84
2023/05/22 14:11:17;;;;;;;5.32;4.13;;;;;;;;;;4980432;28;20421;-84
2023/05/22 14:13:43;;;;;;;9.63;4.38;;;;;;;;;;4980655;28;20022;-84
2023/05/22 14:16:09;;;;;;;5.97;4.63;;;;;;;;;;4997879;28;20062;-84
2023/05/22 14:18:35;;;;;;;8.65;4.28;;;;;;;;;;4997563;28;20057;-84
2023/05/22 14:21:01;;;;;;;6.72;4.78;;;;;;;;;;4997718;28;20413;-83
2023/05/22 14:23:27;;;;;;;8.63;5.13;;;;;;;;;;4997747;28;20439;-84
2023/05/22 14:25:53;;;;;;;10.07;4.63;;;;;;;;;;4997456;28;20424;-84
2023/05/22 14:28:19;;;;;;;6.88;4.35;;;;;;;;;;4997485;28;20038;-83
2023/05/22 14:30:46;;;;;;;5.00;4.18;;;;;;;;;;4997677;28;20026;-83
2023/05/22 14:33:44;;;;;;;6.93;4.22;;;;;;;;;;4980039;28;20034;-84
2023/05/22 14:36:10;;;;;;;6.25;4.35;;;;;;;;;;4997154;28;20035;-82
2023/05/22 14:38:36;;;;;;;7.13;4.32;;;;;;;;;;4980340;28;20038;-83